Flugplatz Illertissen (EDMI)

Hier findest Du alle Informationen zum Flugplatz Illertissen (EDMI).

Informationen für Piloten zum Flugplatz Illertissen

Hier findest Du alle relevanten Informationen, die Du als Pilot benötigst, um Illertissen anzufliegen.

Flugplatz: Illertissen ICAO-Code: EDMI
Frequenz Turm: 118,525 Mhz GAFOR Gebiet: -
Frequenz Ground: 118,525 Mhz Mogas: ja
Platzrunde: S 2400 ft Landegebühr: -
Platzhöhe: 1.680 ft Sunrise: 05:54 Uhr UTC
Pisten: 08/26 - 540 m x 30 m, GRAS Sunset: 17:08 Uhr UTC

Mitglieder, die in Illertissen fliegen

Flugwetter am Flugplatz Illertissen

Die METAR Information stammen aus EDMA (62.36 km entfernt).

METAR Code:
2024/01/16 18:20
EDMA 161820Z 10002KT CAVOK M06/M08 Q1008

Flugschulen am Flugplatz Illertissen

Am Flugplatz Illertissen gibt es leider keine Flugschule.

Benachbarte Flugplätze und Flugschulen

Es gibt 23 weitere Flugplätze in einem Umkreis von 50 km um den Flugplatz Illertissen.

Jetzt anmelden

Passwort vergessen

Umfrage Archiv

Wie häufig haltet Ihr die Halbkreisflugregel ein?

Eher häufig!
34.9 %
Immer!
33 %
Hin und wieder!
15.3 %
Nie!
10 %
Eher selten!
6.7 %
Stimmen: 209 | Diskussion
Anzeige: Roland Aircraft
Statistik Alle Mitglieder

Aktuell sind 26 Besucher online, davon 3 Mitglieder und 23 Gäste.


Mitglieder online:
Scoobydoo  hajost  Olaf G. 

Anzeige: EasyVFR